createdAt,value
2022-09-12T00:00:40.071Z,71.56
2022-09-12T00:06:00.515Z,71.93
2022-09-12T00:11:22.001Z,72.46
2022-09-12T00:16:43.242Z,72.63
2022-09-12T00:22:03.819Z,72.92
2022-09-12T00:27:24.622Z,73.03
2022-09-12T00:32:45.173Z,73.28
2022-09-12T00:38:06.034Z,73.42
2022-09-12T00:43:29.629Z,73.33
2022-09-12T00:48:57.809Z,73.22
2022-09-12T00:54:22.944Z,73.28
2022-09-12T00:59:53.033Z,73.17
2022-09-12T01:05:14.166Z,72.77
2022-09-12T01:10:37.439Z,72.31
2022-09-12T01:15:57.911Z,72.31
2022-09-12T01:22:01.963Z,72.61
2022-09-12T01:27:50.869Z,72.53
2022-09-12T01:33:20.820Z,73.42
2022-09-12T01:39:02.748Z,73.93
2022-09-12T01:44:32.052Z,73.98
2022-09-12T01:50:10.576Z,73.95
2022-09-12T01:55:36.358Z,74.47
2022-09-12T02:01:07.842Z,74.90
2022-09-12T02:06:35.201Z,74.37
2022-09-12T02:11:59.057Z,74.00
2022-09-12T02:17:23.091Z,73.88
2022-09-12T02:22:45.674Z,73.78
2022-09-12T02:28:38.028Z,74.39
2022-09-12T02:34:16.927Z,74.02
2022-09-12T02:39:37.526Z,74.26
2022-09-12T02:44:58.793Z,74.42
2022-09-12T02:50:20.017Z,74.57
2022-09-12T02:55:41.729Z,74.81
2022-09-12T03:01:46.112Z,75.14
2022-09-12T03:07:39.433Z,74.75
2022-09-12T03:13:15.746Z,75.40
2022-09-12T03:18:51.503Z,75.42
2022-09-12T03:24:20.517Z,75.51
2022-09-12T03:29:43.419Z,75.28
2022-09-12T03:35:04.641Z,75.72
2022-09-12T03:40:25.905Z,75.80
2022-09-12T03:45:51.949Z,75.91
2022-09-12T03:51:12.857Z,75.54
2022-09-12T03:56:33.429Z,75.59
2022-09-12T04:01:54.206Z,75.51
2022-09-12T04:07:16.532Z,75.59
2022-09-12T04:12:39.432Z,75.17
2022-09-12T04:18:05.072Z,75.05
2022-09-12T04:23:26.424Z,75.01
2022-09-12T04:28:47.690Z,75.07
2022-09-12T04:34:08.907Z,75.41
2022-09-12T04:39:29.355Z,75.43
2022-09-12T04:44:50.263Z,75.69
2022-09-12T04:50:11.113Z,75.86
2022-09-12T04:55:34.879Z,76.02
2022-09-12T05:00:55.363Z,76.01
2022-09-12T05:06:22.028Z,76.09
2022-09-12T05:12:04.312Z,75.93
2022-09-12T05:17:25.489Z,75.93
2022-09-12T05:22:46.092Z,75.91
2022-09-12T05:28:06.664Z,75.85
2022-09-12T05:33:27.877Z,75.64
2022-09-12T05:46:25.659Z,75.64
2022-09-12T05:51:46.384Z,75.40
2022-09-12T05:57:07.111Z,75.42
2022-09-12T06:02:28.854Z,75.51
2022-09-12T06:07:49.252Z,75.46
2022-09-12T06:13:09.997Z,75.30
2022-09-12T06:18:30.492Z,75.24
2022-09-12T06:23:51.401Z,75.16
2022-09-12T06:29:11.820Z,75.62
2022-09-12T06:34:33.802Z,75.66
2022-09-12T06:39:54.023Z,76.12
2022-09-12T06:45:16.505Z,75.92
2022-09-12T06:50:37.466Z,75.91
2022-09-12T06:56:08.959Z,75.91
2022-09-12T07:01:31.713Z,76.08
2022-09-12T07:06:52.171Z,75.88
2022-09-12T07:12:12.828Z,76.45
2022-09-12T07:17:33.348Z,76.23
2022-09-12T07:22:54.149Z,76.42
2022-09-12T07:28:15.090Z,76.24
2022-09-12T07:33:37.001Z,76.26
2022-09-12T07:38:58.313Z,75.64
2022-09-12T07:44:18.810Z,75.46
2022-09-12T07:49:39.496Z,75.17
2022-09-12T07:55:00.145Z,74.92
2022-09-12T08:00:21.174Z,75.07
2022-09-12T08:05:42.290Z,75.55
2022-09-12T08:11:06.121Z,75.04
2022-09-12T08:16:29.737Z,74.53
2022-09-12T08:21:50.188Z,73.80
2022-09-12T08:27:10.708Z,73.74
2022-09-12T08:32:31.733Z,74.11
2022-09-12T08:37:52.218Z,73.26
2022-09-12T08:43:23.714Z,73.27
2022-09-12T08:48:46.784Z,72.83
2022-09-12T08:54:24.055Z,72.51
2022-09-12T08:59:45.936Z,72.43
2022-09-12T09:05:29.900Z,72.25
2022-09-12T09:10:59.720Z,71.43
2022-09-12T09:16:41.103Z,70.63
2022-09-12T09:22:12.037Z,71.11
2022-09-12T09:27:41.639Z,71.10
2022-09-12T09:33:09.817Z,70.41
2022-09-12T09:38:49.125Z,70.35
2022-09-12T09:44:10.474Z,70.03
2022-09-12T09:49:34.103Z,69.63
2022-09-12T09:55:00.217Z,69.47
2022-09-12T10:00:27.697Z,68.80
2022-09-12T10:05:54.476Z,69.28
2022-09-12T10:11:20.353Z,68.74
2022-09-12T10:16:54.589Z,68.92
2022-09-12T10:22:21.306Z,68.12
2022-09-12T10:27:42.677Z,67.96
2022-09-12T10:33:11.578Z,67.88
2022-09-12T10:38:32.981Z,66.28
2022-09-12T10:44:07.746Z,66.00
2022-09-12T10:49:37.864Z,66.34
2022-09-12T10:54:58.966Z,66.64
2022-09-12T11:00:27.483Z,65.60
2022-09-12T11:05:53.903Z,64.47
2022-09-12T11:11:37.096Z,63.54
2022-09-12T11:17:22.593Z,61.26
2022-09-12T11:22:52.335Z,60.26
2022-09-12T11:28:50.459Z,62.61
2022-09-12T11:34:17.653Z,65.29
2022-09-12T11:39:45.698Z,66.07
2022-09-12T11:45:34.141Z,64.60
2022-09-12T11:50:55.170Z,62.87
2022-09-12T11:56:18.513Z,62.37
2022-09-12T12:01:48.340Z,62.60
2022-09-12T12:07:12.380Z,62.99
2022-09-12T12:13:23.267Z,58.26
2022-09-12T12:18:44.127Z,61.09
2022-09-12T12:24:07.695Z,63.05
2022-09-12T12:29:43.614Z,63.80
2022-09-12T12:35:37.415Z,65.01
2022-09-12T12:41:16.637Z,66.32
2022-09-12T12:46:38.327Z,66.58
2022-09-12T12:52:03.430Z,67.27
2022-09-12T12:57:40.753Z,67.65
2022-09-12T13:03:04.411Z,66.93
2022-09-12T13:08:32.028Z,66.66
2022-09-12T13:14:09.557Z,66.72
2022-09-12T13:19:33.333Z,66.92
2022-09-12T13:24:53.628Z,67.48
2022-09-12T13:30:15.433Z,67.31
2022-09-12T13:36:06.358Z,68.20
2022-09-12T13:41:45.444Z,68.99
2022-09-12T13:47:06.046Z,69.57
2022-09-12T13:52:32.381Z,67.32
2022-09-12T13:58:01.073Z,66.63
2022-09-12T14:03:49.561Z,66.96
2022-09-12T14:09:15.659Z,67.54
2022-09-12T14:14:43.887Z,67.72
2022-09-12T14:20:14.033Z,69.03
2022-09-12T14:25:39.025Z,69.33
2022-09-12T14:31:22.013Z,69.17
2022-09-12T14:36:49.966Z,69.12
2022-09-12T14:42:17.061Z,68.84
2022-09-12T14:47:44.355Z,69.30
2022-09-12T14:53:06.856Z,68.53
2022-09-12T14:58:28.266Z,69.38
2022-09-12T15:03:51.855Z,69.26
2022-09-12T15:09:14.004Z,69.91
2022-09-12T15:14:34.317Z,70.29
2022-09-12T15:19:54.651Z,70.73
2022-09-12T15:25:14.953Z,71.01
2022-09-12T15:30:35.613Z,70.78
2022-09-12T15:35:56.023Z,70.46
2022-09-12T15:41:38.112Z,70.58
2022-09-12T15:46:58.581Z,71.30
2022-09-12T15:52:19.457Z,72.19
2022-09-12T15:57:40.412Z,72.87
2022-09-12T16:03:01.192Z,73.14
2022-09-12T16:08:22.443Z,73.30
2022-09-12T16:13:43.101Z,73.15
2022-09-12T16:19:03.933Z,72.78
2022-09-12T16:24:24.691Z,72.50
2022-09-12T16:29:45.406Z,72.27
2022-09-12T16:35:06.602Z,72.33
2022-09-12T16:40:27.256Z,72.51
2022-09-12T16:45:48.234Z,72.86
2022-09-12T16:51:09.555Z,72.66
2022-09-12T16:56:30.057Z,72.71
2022-09-12T17:01:50.843Z,72.74
2022-09-12T17:07:11.150Z,72.95
2022-09-12T17:12:31.643Z,73.34
2022-09-12T17:17:52.342Z,73.18
2022-09-12T17:23:12.804Z,73.57
2022-09-12T17:28:34.019Z,73.68
2022-09-12T17:33:59.017Z,73.79
2022-09-12T17:39:20.722Z,73.85
2022-09-12T17:44:41.586Z,74.11
2022-09-12T17:50:29.958Z,74.43
2022-09-12T17:55:42.452Z,74.00
2022-09-12T18:01:32.779Z,74.51
2022-09-12T18:06:54.801Z,74.41
2022-09-12T18:12:16.591Z,74.36
2022-09-12T18:17:37.606Z,74.11
2022-09-12T18:22:59.171Z,74.33
2022-09-12T18:28:19.888Z,74.22
2022-09-12T18:33:41.014Z,74.29
2022-09-12T18:39:01.440Z,74.35
2022-09-12T18:44:22.243Z,74.31
2022-09-12T18:49:42.397Z,74.33
2022-09-12T18:55:03.287Z,74.21
2022-09-12T19:00:24.231Z,74.29
2022-09-12T19:05:45.082Z,74.18
2022-09-12T19:11:08.055Z,74.01
2022-09-12T19:16:29.802Z,73.88
2022-09-12T19:21:50.229Z,73.52
2022-09-12T19:27:12.942Z,73.42
2022-09-12T19:32:33.564Z,73.52
2022-09-12T19:37:54.361Z,73.62
2022-09-12T19:43:14.908Z,74.07
2022-09-12T19:48:39.297Z,75.00
2022-09-12T19:54:00.125Z,75.38
2022-09-12T19:59:22.544Z,76.17
2022-09-12T20:04:43.203Z,75.95
2022-09-12T20:10:04.376Z,76.29
2022-09-12T20:15:25.241Z,76.14
2022-09-12T20:20:45.588Z,76.09
2022-09-12T20:26:07.043Z,75.32
2022-09-12T20:31:27.827Z,74.78
2022-09-12T20:36:48.883Z,74.35
2022-09-12T20:42:09.320Z,74.27
2022-09-12T20:47:29.792Z,74.07
2022-09-12T20:52:51.129Z,74.76
2022-09-12T20:58:12.444Z,76.58
2022-09-12T21:03:39.805Z,77.44
2022-09-12T21:09:01.043Z,78.03
2022-09-12T21:14:23.297Z,78.43
2022-09-12T21:19:46.171Z,78.38
2022-09-12T21:25:07.523Z,78.46
2022-09-12T21:30:31.094Z,79.04
2022-09-12T21:35:51.913Z,79.34
2022-09-12T21:41:15.460Z,80.06
2022-09-12T21:46:36.601Z,81.46
2022-09-12T21:51:57.160Z,82.07
2022-09-12T21:57:17.957Z,82.14
2022-09-12T22:02:38.716Z,82.82
2022-09-12T22:08:02.408Z,82.58
2022-09-12T22:13:23.145Z,82.82
2022-09-12T22:18:45.416Z,83.29
2022-09-12T22:24:25.311Z,83.41
2022-09-12T22:29:49.618Z,83.41
2022-09-12T22:35:10.337Z,83.63
2022-09-12T22:40:31.304Z,84.17
2022-09-12T22:45:52.334Z,84.77
2022-09-12T22:51:13.525Z,84.76
2022-09-12T22:56:34.313Z,84.96
2022-09-12T23:01:54.828Z,85.48
2022-09-12T23:07:15.777Z,85.28
2022-09-12T23:12:36.908Z,85.25
2022-09-12T23:17:58.843Z,85.30
2022-09-12T23:23:19.551Z,85.71
2022-09-12T23:28:42.201Z,85.15
2022-09-12T23:34:05.762Z,85.19
2022-09-12T23:39:26.391Z,86.06
2022-09-12T23:44:47.473Z,86.36
2022-09-12T23:50:08.154Z,86.42
2022-09-12T23:55:28.639Z,85.97
